sensor_id;sensor_type;location;lat;lon;timestamp;temperature;humidity
19192;DHT22;9728;48.194;16.346;2023-12-28T00:04:13;15.30;67.70
19192;DHT22;9728;48.194;16.346;2023-12-28T00:09:16;15.30;67.70
19192;DHT22;9728;48.194;16.346;2023-12-28T00:14:20;15.30;67.50
19192;DHT22;9728;48.194;16.346;2023-12-28T00:19:25;15.20;67.50
19192;DHT22;9728;48.194;16.346;2023-12-28T00:24:28;15.20;67.60
19192;DHT22;9728;48.194;16.346;2023-12-28T00:29:31;15.20;67.50
19192;DHT22;9728;48.194;16.346;2023-12-28T00:34:39;15.10;67.30
19192;DHT22;9728;48.194;16.346;2023-12-28T00:39:42;15.00;67.50
19192;DHT22;9728;48.194;16.346;2023-12-28T00:44:47;15.00;68.30
19192;DHT22;9728;48.194;16.346;2023-12-28T00:49:51;14.90;67.50
19192;DHT22;9728;48.194;16.346;2023-12-28T00:54:55;14.90;67.60
19192;DHT22;9728;48.194;16.346;2023-12-28T00:59:58;14.80;67.50
19192;DHT22;9728;48.194;16.346;2023-12-28T01:05:04;14.70;67.50
19192;DHT22;9728;48.194;16.346;2023-12-28T01:10:07;14.70;67.70
19192;DHT22;9728;48.194;16.346;2023-12-28T01:15:11;14.60;67.70
19192;DHT22;9728;48.194;16.346;2023-12-28T01:20:16;14.60;68.00
19192;DHT22;9728;48.194;16.346;2023-12-28T01:25:19;14.50;68.00
19192;DHT22;9728;48.194;16.346;2023-12-28T01:30:22;14.50;68.00
19192;DHT22;9728;48.194;16.346;2023-12-28T01:35:27;14.40;69.00
19192;DHT22;9728;48.194;16.346;2023-12-28T01:40:30;14.40;68.30
19192;DHT22;9728;48.194;16.346;2023-12-28T01:45:34;14.40;68.30
19192;DHT22;9728;48.194;16.346;2023-12-28T01:50:39;14.30;68.50
19192;DHT22;9728;48.194;16.346;2023-12-28T01:55:43;14.30;68.80
19192;DHT22;9728;48.194;16.346;2023-12-28T02:00:47;14.30;68.70
19192;DHT22;9728;48.194;16.346;2023-12-28T02:05:52;14.30;68.70
19192;DHT22;9728;48.194;16.346;2023-12-28T02:10:55;14.30;68.90
19192;DHT22;9728;48.194;16.346;2023-12-28T02:16:02;14.20;68.70
19192;DHT22;9728;48.194;16.346;2023-12-28T02:21:08;14.20;69.20
19192;DHT22;9728;48.194;16.346;2023-12-28T02:26:13;14.20;69.10
19192;DHT22;9728;48.194;16.346;2023-12-28T02:31:21;14.20;69.20
19192;DHT22;9728;48.194;16.346;2023-12-28T02:36:28;14.20;69.50
19192;DHT22;9728;48.194;16.346;2023-12-28T02:41:33;14.20;69.30
19192;DHT22;9728;48.194;16.346;2023-12-28T02:46:38;14.20;69.50
19192;DHT22;9728;48.194;16.346;2023-12-28T02:51:42;14.20;69.50
19192;DHT22;9728;48.194;16.346;2023-12-28T02:56:46;14.20;69.40
19192;DHT22;9728;48.194;16.346;2023-12-28T03:01:50;14.20;69.50
19192;DHT22;9728;48.194;16.346;2023-12-28T03:06:53;14.20;69.50
19192;DHT22;9728;48.194;16.346;2023-12-28T03:11:58;14.20;69.60
19192;DHT22;9728;48.194;16.346;2023-12-28T03:17:01;14.20;69.70
19192;DHT22;9728;48.194;16.346;2023-12-28T03:22:04;14.20;69.60
19192;DHT22;9728;48.194;16.346;2023-12-28T03:27:09;14.10;69.70
19192;DHT22;9728;48.194;16.346;2023-12-28T03:32:14;14.10;69.80
19192;DHT22;9728;48.194;16.346;2023-12-28T03:37:17;14.10;69.80
19192;DHT22;9728;48.194;16.346;2023-12-28T03:42:22;14.10;69.70
19192;DHT22;9728;48.194;16.346;2023-12-28T03:47:26;14.10;70.00
19192;DHT22;9728;48.194;16.346;2023-12-28T03:52:29;14.10;69.90
19192;DHT22;9728;48.194;16.346;2023-12-28T03:57:34;14.10;69.90
19192;DHT22;9728;48.194;16.346;2023-12-28T04:02:37;14.10;70.00
19192;DHT22;9728;48.194;16.346;2023-12-28T04:07:41;14.20;70.00
19192;DHT22;9728;48.194;16.346;2023-12-28T04:12:48;14.10;70.00
19192;DHT22;9728;48.194;16.346;2023-12-28T04:17:52;14.10;70.10
19192;DHT22;9728;48.194;16.346;2023-12-28T04:22:55;14.10;70.00
19192;DHT22;9728;48.194;16.346;2023-12-28T04:28:00;14.10;70.00
19192;DHT22;9728;48.194;16.346;2023-12-28T04:33:04;14.10;70.20
19192;DHT22;9728;48.194;16.346;2023-12-28T04:38:08;14.10;70.00
19192;DHT22;9728;48.194;16.346;2023-12-28T04:43:13;14.10;70.10
19192;DHT22;9728;48.194;16.346;2023-12-28T04:48:17;14.10;70.20
19192;DHT22;9728;48.194;16.346;2023-12-28T04:53:23;14.10;70.20
19192;DHT22;9728;48.194;16.346;2023-12-28T04:58:28;14.00;70.20
19192;DHT22;9728;48.194;16.346;2023-12-28T05:03:32;14.00;70.40
19192;DHT22;9728;48.194;16.346;2023-12-28T05:08:36;14.00;70.30
19192;DHT22;9728;48.194;16.346;2023-12-28T05:13:40;14.00;70.30
19192;DHT22;9728;48.194;16.346;2023-12-28T05:18:43;14.00;70.50
19192;DHT22;9728;48.194;16.346;2023-12-28T05:23:47;14.00;70.40
19192;DHT22;9728;48.194;16.346;2023-12-28T05:28:52;14.00;70.40
19192;DHT22;9728;48.194;16.346;2023-12-28T05:33:55;14.00;70.60
19192;DHT22;9728;48.194;16.346;2023-12-28T05:39:00;14.00;70.40
19192;DHT22;9728;48.194;16.346;2023-12-28T05:44:06;14.00;71.40
19192;DHT22;9728;48.194;16.346;2023-12-28T05:49:09;13.90;70.60
19192;DHT22;9728;48.194;16.346;2023-12-28T05:54:12;13.90;70.50
19192;DHT22;9728;48.194;16.346;2023-12-28T05:59:17;13.90;70.60
19192;DHT22;9728;48.194;16.346;2023-12-28T06:04:20;13.90;70.80
19192;DHT22;9728;48.194;16.346;2023-12-28T06:09:24;13.90;70.60
19192;DHT22;9728;48.194;16.346;2023-12-28T06:14:31;13.90;70.70
19192;DHT22;9728;48.194;16.346;2023-12-28T06:19:34;13.90;70.80
19192;DHT22;9728;48.194;16.346;2023-12-28T06:24:38;13.90;70.70
19192;DHT22;9728;48.194;16.346;2023-12-28T06:29:43;13.90;70.70
19192;DHT22;9728;48.194;16.346;2023-12-28T06:34:47;13.90;71.70
19192;DHT22;9728;48.194;16.346;2023-12-28T06:39:51;13.90;70.70
19192;DHT22;9728;48.194;16.346;2023-12-28T06:44:56;13.90;70.60
19192;DHT22;9728;48.194;16.346;2023-12-28T06:49:59;13.90;70.80
19192;DHT22;9728;48.194;16.346;2023-12-28T06:55:02;13.90;70.80
19192;DHT22;9728;48.194;16.346;2023-12-28T07:00:09;13.90;70.80
19192;DHT22;9728;48.194;16.346;2023-12-28T07:05:12;13.90;70.90
19192;DHT22;9728;48.194;16.346;2023-12-28T07:10:16;13.90;70.80
19192;DHT22;9728;48.194;16.346;2023-12-28T07:15:20;13.90;70.70
19192;DHT22;9728;48.194;16.346;2023-12-28T07:20:25;13.90;70.80
19192;DHT22;9728;48.194;16.346;2023-12-28T07:25:28;13.90;70.80
19192;DHT22;9728;48.194;16.346;2023-12-28T07:30:33;13.90;70.80
19192;DHT22;9728;48.194;16.346;2023-12-28T07:35:36;13.90;70.90
19192;DHT22;9728;48.194;16.346;2023-12-28T07:40:40;13.90;70.80
19192;DHT22;9728;48.194;16.346;2023-12-28T07:45:44;13.90;70.80
19192;DHT22;9728;48.194;16.346;2023-12-28T07:50:48;13.90;71.00
19192;DHT22;9728;48.194;16.346;2023-12-28T07:55:53;13.90;70.80
19192;DHT22;9728;48.194;16.346;2023-12-28T08:00:59;13.90;70.80
19192;DHT22;9728;48.194;16.346;2023-12-28T08:06:03;13.90;71.00
19192;DHT22;9728;48.194;16.346;2023-12-28T08:11:07;13.90;71.00
19192;DHT22;9728;48.194;16.346;2023-12-28T08:16:11;13.90;71.00
19192;DHT22;9728;48.194;16.346;2023-12-28T08:21:15;13.90;71.20
19192;DHT22;9728;48.194;16.346;2023-12-28T08:26:18;13.90;71.10
19192;DHT22;9728;48.194;16.346;2023-12-28T08:31:23;13.90;71.00
19192;DHT22;9728;48.194;16.346;2023-12-28T08:36:26;13.90;71.10
19192;DHT22;9728;48.194;16.346;2023-12-28T08:41:30;13.90;71.00
19192;DHT22;9728;48.194;16.346;2023-12-28T08:46:34;13.90;71.00
19192;DHT22;9728;48.194;16.346;2023-12-28T08:51:38;13.90;71.00
19192;DHT22;9728;48.194;16.346;2023-12-28T08:56:45;13.90;70.80
19192;DHT22;9728;48.194;16.346;2023-12-28T09:01:55;13.90;70.70
19192;DHT22;9728;48.194;16.346;2023-12-28T09:06:59;13.80;70.70
19192;DHT22;9728;48.194;16.346;2023-12-28T09:12:03;13.80;70.70
19192;DHT22;9728;48.194;16.346;2023-12-28T09:17:08;13.80;71.10
19192;DHT22;9728;48.194;16.346;2023-12-28T09:22:11;13.80;72.20
19192;DHT22;9728;48.194;16.346;2023-12-28T09:27:14;13.80;71.70
19192;DHT22;9728;48.194;16.346;2023-12-28T09:32:19;13.90;73.40
19192;DHT22;9728;48.194;16.346;2023-12-28T09:37:24;14.00;72.90
19192;DHT22;9728;48.194;16.346;2023-12-28T09:42:32;14.10;72.30
19192;DHT22;9728;48.194;16.346;2023-12-28T09:47:39;14.20;72.10
19192;DHT22;9728;48.194;16.346;2023-12-28T09:52:43;14.20;71.60
19192;DHT22;9728;48.194;16.346;2023-12-28T09:57:46;14.20;71.20
19192;DHT22;9728;48.194;16.346;2023-12-28T10:02:52;14.30;71.00
19192;DHT22;9728;48.194;16.346;2023-12-28T10:07:56;14.30;70.90
19192;DHT22;9728;48.194;16.346;2023-12-28T10:13:00;14.30;70.70
19192;DHT22;9728;48.194;16.346;2023-12-28T10:18:06;14.20;70.60
19192;DHT22;9728;48.194;16.346;2023-12-28T10:23:11;14.20;70.60
19192;DHT22;9728;48.194;16.346;2023-12-28T10:28:16;14.20;70.60
19192;DHT22;9728;48.194;16.346;2023-12-28T10:33:22;14.20;70.60
19192;DHT22;9728;48.194;16.346;2023-12-28T10:38:28;14.10;70.60
19192;DHT22;9728;48.194;16.346;2023-12-28T10:43:41;14.10;70.60
19192;DHT22;9728;48.194;16.346;2023-12-28T10:48:53;14.10;70.70
19192;DHT22;9728;48.194;16.346;2023-12-28T10:54:04;14.00;74.60
19192;DHT22;9728;48.194;16.346;2023-12-28T10:59:24;14.10;76.30
19192;DHT22;9728;48.194;16.346;2023-12-28T11:04:40;14.40;74.00
19192;DHT22;9728;48.194;16.346;2023-12-28T11:09:44;14.70;75.30
19192;DHT22;9728;48.194;16.346;2023-12-28T11:14:50;15.00;74.60
19192;DHT22;9728;48.194;16.346;2023-12-28T11:19:56;15.20;73.20
19192;DHT22;9728;48.194;16.346;2023-12-28T11:25:00;15.40;72.20
19192;DHT22;9728;48.194;16.346;2023-12-28T11:30:04;15.50;76.20
19192;DHT22;9728;48.194;16.346;2023-12-28T11:35:11;15.80;74.80
19192;DHT22;9728;48.194;16.346;2023-12-28T11:40:17;16.10;72.80
19192;DHT22;9728;48.194;16.346;2023-12-28T11:45:25;16.30;71.50
19192;DHT22;9728;48.194;16.346;2023-12-28T11:50:30;16.30;70.50
19192;DHT22;9728;48.194;16.346;2023-12-28T11:55:34;16.20;69.70
19192;DHT22;9728;48.194;16.346;2023-12-28T12:00:37;16.10;69.40
19192;DHT22;9728;48.194;16.346;2023-12-28T12:05:43;16.00;69.10
19192;DHT22;9728;48.194;16.346;2023-12-28T12:10:46;15.90;68.90
19192;DHT22;9728;48.194;16.346;2023-12-28T12:15:50;15.70;68.70
19192;DHT22;9728;48.194;16.346;2023-12-28T12:21:01;15.60;68.60
19192;DHT22;9728;48.194;16.346;2023-12-28T12:26:07;15.40;68.60
19192;DHT22;9728;48.194;16.346;2023-12-28T12:31:11;15.20;68.60
19192;DHT22;9728;48.194;16.346;2023-12-28T12:36:17;15.10;68.60
19192;DHT22;9728;48.194;16.346;2023-12-28T12:41:21;15.00;68.60
19192;DHT22;9728;48.194;16.346;2023-12-28T12:46:24;14.80;69.60
19192;DHT22;9728;48.194;16.346;2023-12-28T12:51:30;14.60;68.90
19192;DHT22;9728;48.194;16.346;2023-12-28T12:56:33;14.50;69.00
19192;DHT22;9728;48.194;16.346;2023-12-28T13:01:36;14.40;69.10
19192;DHT22;9728;48.194;16.346;2023-12-28T13:06:41;14.30;69.10
19192;DHT22;9728;48.194;16.346;2023-12-28T13:11:45;14.20;69.30
19192;DHT22;9728;48.194;16.346;2023-12-28T13:16:52;14.10;69.30
19192;DHT22;9728;48.194;16.346;2023-12-28T13:22:01;14.10;69.40
19192;DHT22;9728;48.194;16.346;2023-12-28T13:27:05;14.00;69.50
19192;DHT22;9728;48.194;16.346;2023-12-28T13:32:08;13.90;70.70
19192;DHT22;9728;48.194;16.346;2023-12-28T13:37:13;13.90;69.90
19192;DHT22;9728;48.194;16.346;2023-12-28T13:42:17;13.90;69.90
19192;DHT22;9728;48.194;16.346;2023-12-28T13:47:20;13.90;69.90
19192;DHT22;9728;48.194;16.346;2023-12-28T13:52:25;13.90;70.00
19192;DHT22;9728;48.194;16.346;2023-12-28T13:57:28;13.80;69.80
19192;DHT22;9728;48.194;16.346;2023-12-28T14:02:32;13.70;69.70
19192;DHT22;9728;48.194;16.346;2023-12-28T14:07:37;13.70;69.90
19192;DHT22;9728;48.194;16.346;2023-12-28T14:12:40;13.70;70.00
19192;DHT22;9728;48.194;16.346;2023-12-28T14:17:44;13.70;70.00
19192;DHT22;9728;48.194;16.346;2023-12-28T14:22:49;13.70;70.10
19192;DHT22;9728;48.194;16.346;2023-12-28T14:27:53;13.60;70.30
19192;DHT22;9728;48.194;16.346;2023-12-28T14:32:57;13.60;70.30
19192;DHT22;9728;48.194;16.346;2023-12-28T14:38:03;13.60;70.30
19192;DHT22;9728;48.194;16.346;2023-12-28T14:43:07;13.60;70.50
19192;DHT22;9728;48.194;16.346;2023-12-28T14:48:11;13.60;70.50
19192;DHT22;9728;48.194;16.346;2023-12-28T14:53:16;13.60;70.60
19192;DHT22;9728;48.194;16.346;2023-12-28T14:58:19;13.60;70.70
19192;DHT22;9728;48.194;16.346;2023-12-28T15:03:24;13.50;70.50
19192;DHT22;9728;48.194;16.346;2023-12-28T15:08:29;13.50;70.60
19192;DHT22;9728;48.194;16.346;2023-12-28T15:13:32;13.50;70.80
19192;DHT22;9728;48.194;16.346;2023-12-28T15:18:36;13.50;70.70
19192;DHT22;9728;48.194;16.346;2023-12-28T15:23:44;13.50;70.80
19192;DHT22;9728;48.194;16.346;2023-12-28T15:28:47;13.40;70.90
19192;DHT22;9728;48.194;16.346;2023-12-28T15:33:51;13.40;70.90
19192;DHT22;9728;48.194;16.346;2023-12-28T15:38:56;13.40;70.90
19192;DHT22;9728;48.194;16.346;2023-12-28T15:43:59;13.40;71.10
19192;DHT22;9728;48.194;16.346;2023-12-28T15:49:02;13.40;71.10
19192;DHT22;9728;48.194;16.346;2023-12-28T15:54:08;13.40;71.20
19192;DHT22;9728;48.194;16.346;2023-12-28T15:59:11;13.30;71.30
19192;DHT22;9728;48.194;16.346;2023-12-28T16:04:14;13.30;71.20
19192;DHT22;9728;48.194;16.346;2023-12-28T16:09:19;13.30;71.30
19192;DHT22;9728;48.194;16.346;2023-12-28T16:14:24;13.30;71.30
19192;DHT22;9728;48.194;16.346;2023-12-28T16:19:28;13.30;71.30
19192;DHT22;9728;48.194;16.346;2023-12-28T16:24:33;13.30;71.30
19192;DHT22;9728;48.194;16.346;2023-12-28T16:29:36;13.30;71.60
19192;DHT22;9728;48.194;16.346;2023-12-28T16:34:40;13.30;71.50
19192;DHT22;9728;48.194;16.346;2023-12-28T16:39:45;13.30;71.50
19192;DHT22;9728;48.194;16.346;2023-12-28T16:44:48;13.20;71.60
19192;DHT22;9728;48.194;16.346;2023-12-28T16:49:51;13.20;71.50
19192;DHT22;9728;48.194;16.346;2023-12-28T16:54:56;13.20;71.50
19192;DHT22;9728;48.194;16.346;2023-12-28T16:59:59;13.20;71.60
19192;DHT22;9728;48.194;16.346;2023-12-28T17:05:13;13.20;71.50
19192;DHT22;9728;48.194;16.346;2023-12-28T17:10:19;13.20;71.60
19192;DHT22;9728;48.194;16.346;2023-12-28T17:15:26;13.20;71.80
19192;DHT22;9728;48.194;16.346;2023-12-28T17:20:30;13.20;71.80
19192;DHT22;9728;48.194;16.346;2023-12-28T17:25:39;13.10;72.40
19192;DHT22;9728;48.194;16.346;2023-12-28T17:30:46;13.10;71.80
19192;DHT22;9728;48.194;16.346;2023-12-28T17:35:50;13.10;71.50
19192;DHT22;9728;48.194;16.346;2023-12-28T17:40:56;13.10;71.50
19192;DHT22;9728;48.194;16.346;2023-12-28T17:46:06;13.10;71.50
19192;DHT22;9728;48.194;16.346;2023-12-28T17:51:12;13.10;71.80
19192;DHT22;9728;48.194;16.346;2023-12-28T17:56:17;13.00;71.40
19192;DHT22;9728;48.194;16.346;2023-12-28T18:01:21;13.00;71.50
19192;DHT22;9728;48.194;16.346;2023-12-28T18:06:25;13.00;71.30
19192;DHT22;9728;48.194;16.346;2023-12-28T18:11:31;12.90;71.30
19192;DHT22;9728;48.194;16.346;2023-12-28T18:16:34;12.90;71.50
19192;DHT22;9728;48.194;16.346;2023-12-28T18:21:38;12.80;71.30
19192;DHT22;9728;48.194;16.346;2023-12-28T18:26:46;12.80;71.50
19192;DHT22;9728;48.194;16.346;2023-12-28T18:31:50;12.80;71.70
19192;DHT22;9728;48.194;16.346;2023-12-28T18:36:54;12.80;71.80
19192;DHT22;9728;48.194;16.346;2023-12-28T18:42:00;12.70;71.80
19192;DHT22;9728;48.194;16.346;2023-12-28T18:47:04;12.70;72.00
19192;DHT22;9728;48.194;16.346;2023-12-28T18:52:10;12.70;72.00
19192;DHT22;9728;48.194;16.346;2023-12-28T18:57:16;12.70;72.10
19192;DHT22;9728;48.194;16.346;2023-12-28T19:02:21;12.70;72.20
19192;DHT22;9728;48.194;16.346;2023-12-28T19:07:26;12.70;72.10
19192;DHT22;9728;48.194;16.346;2023-12-28T19:12:32;12.70;72.00
19192;DHT22;9728;48.194;16.346;2023-12-28T19:17:37;12.70;72.10
19192;DHT22;9728;48.194;16.346;2023-12-28T19:22:44;12.60;72.90
19192;DHT22;9728;48.194;16.346;2023-12-28T19:27:50;12.70;72.20
19192;DHT22;9728;48.194;16.346;2023-12-28T19:32:55;12.60;72.10
19192;DHT22;9728;48.194;16.346;2023-12-28T19:38:00;12.60;72.10
19192;DHT22;9728;48.194;16.346;2023-12-28T19:43:07;12.60;72.10
19192;DHT22;9728;48.194;16.346;2023-12-28T19:48:13;12.60;72.10
19192;DHT22;9728;48.194;16.346;2023-12-28T19:53:17;12.60;72.10
19192;DHT22;9728;48.194;16.346;2023-12-28T19:58:23;12.60;72.10
19192;DHT22;9728;48.194;16.346;2023-12-28T20:03:28;12.60;72.10
19192;DHT22;9728;48.194;16.346;2023-12-28T20:08:33;12.70;72.00
19192;DHT22;9728;48.194;16.346;2023-12-28T20:13:42;12.70;72.00
19192;DHT22;9728;48.194;16.346;2023-12-28T20:18:46;12.70;73.00
19192;DHT22;9728;48.194;16.346;2023-12-28T20:23:52;12.70;72.00
19192;DHT22;9728;48.194;16.346;2023-12-28T20:28:57;12.60;72.10
19192;DHT22;9728;48.194;16.346;2023-12-28T20:34:01;12.70;72.10
19192;DHT22;9728;48.194;16.346;2023-12-28T20:39:06;12.70;72.00
19192;DHT22;9728;48.194;16.346;2023-12-28T20:44:13;12.70;71.90
19192;DHT22;9728;48.194;16.346;2023-12-28T20:49:22;12.70;72.20
19192;DHT22;9728;48.194;16.346;2023-12-28T20:54:44;12.70;72.00
19192;DHT22;9728;48.194;16.346;2023-12-28T20:59:51;12.80;71.90
19192;DHT22;9728;48.194;16.346;2023-12-28T21:04:56;12.70;71.90
19192;DHT22;9728;48.194;16.346;2023-12-28T21:09:59;12.70;71.80
19192;DHT22;9728;48.194;16.346;2023-12-28T21:15:06;12.70;71.80
19192;DHT22;9728;48.194;16.346;2023-12-28T21:20:10;12.60;72.00
19192;DHT22;9728;48.194;16.346;2023-12-28T21:25:14;12.60;72.00
19192;DHT22;9728;48.194;16.346;2023-12-28T21:30:19;12.60;72.10
19192;DHT22;9728;48.194;16.346;2023-12-28T21:35:22;12.60;72.10
19192;DHT22;9728;48.194;16.346;2023-12-28T21:40:26;12.70;72.10
19192;DHT22;9728;48.194;16.346;2023-12-28T21:45:31;12.70;72.10
19192;DHT22;9728;48.194;16.346;2023-12-28T21:50:35;12.70;72.10
19192;DHT22;9728;48.194;16.346;2023-12-28T21:55:39;12.80;72.20
19192;DHT22;9728;48.194;16.346;2023-12-28T22:00:43;12.80;72.10
19192;DHT22;9728;48.194;16.346;2023-12-28T22:05:47;12.90;72.10
19192;DHT22;9728;48.194;16.346;2023-12-28T22:10:51;12.80;71.90
19192;DHT22;9728;48.194;16.346;2023-12-28T22:15:56;12.90;71.80
19192;DHT22;9728;48.194;16.346;2023-12-28T22:21:00;12.90;71.80
19192;DHT22;9728;48.194;16.346;2023-12-28T22:26:03;12.90;71.70
19192;DHT22;9728;48.194;16.346;2023-12-28T22:31:09;12.90;71.50
19192;DHT22;9728;48.194;16.346;2023-12-28T22:36:12;12.90;71.50
19192;DHT22;9728;48.194;16.346;2023-12-28T22:41:16;12.90;71.50
19192;DHT22;9728;48.194;16.346;2023-12-28T22:46:20;12.90;71.50
19192;DHT22;9728;48.194;16.346;2023-12-28T22:51:24;12.90;71.50
19192;DHT22;9728;48.194;16.346;2023-12-28T22:56:28;12.80;71.50
19192;DHT22;9728;48.194;16.346;2023-12-28T23:01:32;12.90;71.50
19192;DHT22;9728;48.194;16.346;2023-12-28T23:06:36;12.80;71.50
19192;DHT22;9728;48.194;16.346;2023-12-28T23:11:39;12.90;71.50
19192;DHT22;9728;48.194;16.346;2023-12-28T23:16:45;12.90;71.50
19192;DHT22;9728;48.194;16.346;2023-12-28T23:21:49;12.90;71.60
19192;DHT22;9728;48.194;16.346;2023-12-28T23:26:53;12.90;71.60
19192;DHT22;9728;48.194;16.346;2023-12-28T23:31:58;12.90;71.70
19192;DHT22;9728;48.194;16.346;2023-12-28T23:37:01;12.90;71.70
19192;DHT22;9728;48.194;16.346;2023-12-28T23:42:05;13.00;71.70
19192;DHT22;9728;48.194;16.346;2023-12-28T23:47:10;13.00;71.70
19192;DHT22;9728;48.194;16.346;2023-12-28T23:52:14;13.00;71.60
19192;DHT22;9728;48.194;16.346;2023-12-28T23:57:17;13.00;71.50
